Time;durP1;ratioP1;P1;durP2;ratioP2;P2;SDS_P1;SDS_P2;PMS_P1;PMS_P2;Temp;Humidity;BMP_temperature;BMP_pressure;BME280_temperature;BME280_humidity;BME280_pressure;Samples;Min_cycle;Max_cycle;Signal;HPM_P1;HPM_P2
2022/07/19 00:01:47;;;;;;;7.80;4.13;;;;;;;;;;4991558;28;20529;-54
2022/07/19 00:04:13;;;;;;;5.93;4.17;;;;;;;;;;4993480;28;20414;-55
2022/07/19 00:06:39;;;;;;;7.75;4.47;;;;;;;;;;4991671;28;20509;-55
2022/07/19 00:09:05;;;;;;;6.85;4.07;;;;;;;;;;4993422;28;20420;-55
2022/07/19 00:11:32;;;;;;;8.00;3.90;;;;;;;;;;4993341;28;20410;-55
2022/07/19 00:13:59;;;;;;;5.72;4.10;;;;;;;;;;4993609;28;20418;-58
2022/07/19 00:16:25;;;;;;;5.97;3.93;;;;;;;;;;4993109;28;20422;-58
2022/07/19 00:18:51;;;;;;;6.55;4.38;;;;;;;;;;4993095;28;20834;-56
2022/07/19 00:21:17;;;;;;;7.15;4.40;;;;;;;;;;4993331;28;20407;-56
2022/07/19 00:23:43;;;;;;;7.13;4.25;;;;;;;;;;4993097;28;20430;-56
2022/07/19 00:26:09;;;;;;;5.93;3.80;;;;;;;;;;4992629;28;20205;-56
2022/07/19 00:28:35;;;;;;;4.63;3.63;;;;;;;;;;4994236;28;20212;-56
2022/07/19 00:31:04;;;;;;;6.65;4.10;;;;;;;;;;4993097;28;20415;-56
2022/07/19 00:33:30;;;;;;;6.00;4.17;;;;;;;;;;4991148;28;20410;-56
2022/07/19 00:35:56;;;;;;;8.55;4.07;;;;;;;;;;4992802;28;20425;-56
2022/07/19 00:38:22;;;;;;;7.85;4.30;;;;;;;;;;4992914;28;20800;-56
2022/07/19 00:40:48;;;;;;;6.78;4.15;;;;;;;;;;4992869;28;20402;-56
2022/07/19 00:43:14;;;;;;;8.05;4.30;;;;;;;;;;4992867;28;20469;-56
2022/07/19 00:45:40;;;;;;;6.87;4.10;;;;;;;;;;4991979;28;20470;-56
2022/07/19 00:48:07;;;;;;;8.38;4.28;;;;;;;;;;4992525;28;20478;-56
2022/07/19 00:50:34;;;;;;;6.40;3.97;;;;;;;;;;4992388;28;20453;-56
2022/07/19 00:53:02;;;;;;;7.60;3.97;;;;;;;;;;4992709;28;20430;-56
2022/07/19 00:55:29;;;;;;;8.10;4.15;;;;;;;;;;4992608;28;20765;-56
2022/07/19 00:57:56;;;;;;;6.95;4.40;;;;;;;;;;4992420;28;20411;-56
2022/07/19 01:00:22;;;;;;;6.90;4.30;;;;;;;;;;4992485;28;20473;-56
2022/07/19 01:02:48;;;;;;;5.10;4.20;;;;;;;;;;4992286;28;20465;-56
2022/07/19 01:05:15;;;;;;;7.00;4.20;;;;;;;;;;4992428;28;20438;-55
2022/07/19 01:07:41;;;;;;;6.93;3.92;;;;;;;;;;4992187;28;20485;-56
2022/07/19 01:10:09;;;;;;;6.53;4.13;;;;;;;;;;4992347;28;20423;-56
2022/07/19 01:12:35;;;;;;;6.60;4.00;;;;;;;;;;4992158;28;20494;-56
2022/07/19 01:15:01;;;;;;;6.07;3.97;;;;;;;;;;4992376;28;20806;-56
2022/07/19 01:17:27;;;;;;;7.03;4.22;;;;;;;;;;4992056;28;20418;-56
2022/07/19 01:19:54;;;;;;;7.50;3.97;;;;;;;;;;4992015;28;20432;-56
2022/07/19 01:22:21;;;;;;;5.70;4.10;;;;;;;;;;4991685;28;20973;-56
2022/07/19 01:24:47;;;;;;;5.22;4.10;;;;;;;;;;4992009;28;20421;-55
2022/07/19 01:27:13;;;;;;;5.50;4.20;;;;;;;;;;4992155;28;20419;-56
2022/07/19 01:29:39;;;;;;;4.67;4.27;;;;;;;;;;4991872;28;20423;-56
2022/07/19 01:32:06;;;;;;;5.20;4.18;;;;;;;;;;4991921;28;20405;-56
2022/07/19 01:34:32;;;;;;;4.90;3.75;;;;;;;;;;4991703;28;20824;-56
2022/07/19 01:36:58;;;;;;;6.60;4.35;;;;;;;;;;4991932;28;20453;-56
2022/07/19 01:39:26;;;;;;;5.53;3.95;;;;;;;;;;4991831;28;20406;-56
2022/07/19 01:41:52;;;;;;;6.03;4.20;;;;;;;;;;4991534;28;20422;-55
2022/07/19 01:44:18;;;;;;;5.20;4.10;;;;;;;;;;4991864;28;20758;-56
2022/07/19 01:46:44;;;;;;;5.88;3.90;;;;;;;;;;4991634;28;20449;-56
2022/07/19 01:49:10;;;;;;;5.65;4.20;;;;;;;;;;4991785;28;20411;-56
2022/07/19 01:51:35;;;;;;;6.72;4.20;;;;;;;;;;4991566;28;20414;-56
2022/07/19 01:54:02;;;;;;;4.65;4.15;;;;;;;;;;4991857;28;20959;-56
2022/07/19 01:56:29;;;;;;;5.80;4.27;;;;;;;;;;4991727;28;20410;-55
2022/07/19 01:58:55;;;;;;;4.72;4.22;;;;;;;;;;4991513;28;20762;-56
2022/07/19 02:01:21;;;;;;;5.10;4.57;;;;;;;;;;4991561;28;20497;-56
2022/07/19 02:03:47;;;;;;;5.28;4.28;;;;;;;;;;4991477;28;20418;-55
2022/07/19 02:06:13;;;;;;;5.63;4.00;;;;;;;;;;4991527;28;20501;-55
2022/07/19 02:08:40;;;;;;;5.57;4.15;;;;;;;;;;4991468;28;21063;-56
2022/07/19 02:13:53;;;;;;;5.55;4.40;;;;;;;;;;4991397;28;20438;-56
2022/07/19 02:16:18;;;;;;;6.93;4.35;;;;;;;;;;4991445;28;20398;-55
2022/07/19 02:18:44;;;;;;;6.03;4.25;;;;;;;;;;4991435;28;20788;-55
2022/07/19 02:21:10;;;;;;;5.68;4.22;;;;;;;;;;4991470;28;20438;-56
2022/07/19 02:23:36;;;;;;;5.60;4.35;;;;;;;;;;4991073;28;20414;-56
2022/07/19 02:26:03;;;;;;;6.00;4.43;;;;;;;;;;4991469;28;20409;-56
2022/07/19 02:28:29;;;;;;;5.85;4.70;;;;;;;;;;4991426;28;20415;-55
2022/07/19 02:30:56;;;;;;;6.47;4.30;;;;;;;;;;4991169;28;20423;-55
2022/07/19 02:33:22;;;;;;;7.53;4.55;;;;;;;;;;4991185;28;20465;-56
2022/07/19 02:35:48;;;;;;;4.27;3.83;;;;;;;;;;4990944;28;20430;-55
2022/07/19 02:38:14;;;;;;;5.05;4.38;;;;;;;;;;4991331;28;20481;-56
2022/07/19 02:40:40;;;;;;;4.97;4.18;;;;;;;;;;4991231;28;20492;-55
2022/07/19 02:43:06;;;;;;;6.03;4.18;;;;;;;;;;4991175;28;20517;-56
2022/07/19 02:45:31;;;;;;;5.25;4.18;;;;;;;;;;4991291;28;20457;-55
2022/07/19 02:48:00;;;;;;;5.13;4.63;;;;;;;;;;4991163;28;20976;-55
2022/07/19 02:50:26;;;;;;;6.97;4.40;;;;;;;;;;4991100;28;20410;-56
2022/07/19 02:52:52;;;;;;;5.28;4.65;;;;;;;;;;4991007;28;20504;-55
2022/07/19 02:58:22;;;;;;;6.00;4.53;;;;;;;;;;4990883;28;20544;-55
2022/07/19 03:00:48;;;;;;;5.38;4.85;;;;;;;;;;4991046;28;20881;-56
2022/07/19 03:05:59;;;;;;;5.80;4.60;;;;;;;;;;4991095;28;20398;-55
2022/07/19 03:08:25;;;;;;;4.88;4.28;;;;;;;;;;4992299;28;20414;-56
2022/07/19 03:10:51;;;;;;;5.88;4.43;;;;;;;;;;4994586;28;20417;-56
2022/07/19 03:13:17;;;;;;;6.80;4.90;;;;;;;;;;4994643;28;20402;-55
2022/07/19 03:15:43;;;;;;;6.32;4.53;;;;;;;;;;4992840;28;20434;-55
2022/07/19 03:18:09;;;;;;;5.40;4.20;;;;;;;;;;4994418;28;20962;-56
2022/07/19 03:20:36;;;;;;;5.30;4.68;;;;;;;;;;4994498;28;20469;-55
2022/07/19 03:23:03;;;;;;;5.18;4.35;;;;;;;;;;4994326;28;20438;-55
2022/07/19 03:25:30;;;;;;;6.30;4.22;;;;;;;;;;4994446;28;20804;-55
2022/07/19 03:27:56;;;;;;;8.05;5.72;;;;;;;;;;4994252;28;20417;-55
2022/07/19 03:30:22;;;;;;;6.75;5.28;;;;;;;;;;4993888;28;20401;-55
2022/07/19 03:32:49;;;;;;;7.38;5.57;;;;;;;;;;4994010;28;20394;-55
2022/07/19 03:35:15;;;;;;;8.57;5.70;;;;;;;;;;4994077;28;20413;-55
2022/07/19 03:37:42;;;;;;;7.90;6.00;;;;;;;;;;4994037;28;20398;-55
2022/07/19 03:40:09;;;;;;;10.32;6.38;;;;;;;;;;4993885;28;20444;-55
2022/07/19 03:42:35;;;;;;;8.77;6.28;;;;;;;;;;4994007;28;20524;-56
2022/07/19 03:45:01;;;;;;;8.43;5.95;;;;;;;;;;4993871;28;20493;-55
2022/07/19 03:47:27;;;;;;;10.38;7.00;;;;;;;;;;4994044;28;20398;-56
2022/07/19 03:49:53;;;;;;;10.98;7.07;;;;;;;;;;4993810;28;20414;-55
2022/07/19 03:52:19;;;;;;;9.13;6.93;;;;;;;;;;4993931;28;20414;-55
2022/07/19 03:54:46;;;;;;;9.23;6.20;;;;;;;;;;4993891;28;20441;-55
2022/07/19 03:57:12;;;;;;;7.47;5.67;;;;;;;;;;4993647;28;20567;-55
2022/07/19 03:59:38;;;;;;;8.30;5.40;;;;;;;;;;4993760;28;20419;-56
2022/07/19 04:02:04;;;;;;;7.20;5.40;;;;;;;;;;4993426;28;20434;-55
2022/07/19 04:04:30;;;;;;;5.75;5.13;;;;;;;;;;4993818;28;20406;-55
2022/07/19 04:06:56;;;;;;;8.13;5.15;;;;;;;;;;4993484;28;20428;-56
2022/07/19 04:09:23;;;;;;;6.33;5.03;;;;;;;;;;4993581;28;20403;-55
2022/07/19 04:11:50;;;;;;;6.40;5.03;;;;;;;;;;4993427;28;20490;-55
2022/07/19 04:14:16;;;;;;;6.28;5.30;;;;;;;;;;4993445;28;20422;-55
2022/07/19 04:16:42;;;;;;;6.57;4.82;;;;;;;;;;4993342;28;20406;-55
2022/07/19 04:19:08;;;;;;;6.47;4.90;;;;;;;;;;4992825;28;20406;-55
2022/07/19 04:21:34;;;;;;;5.70;5.10;;;;;;;;;;4992812;28;20939;-55
2022/07/19 04:24:00;;;;;;;5.50;4.90;;;;;;;;;;4993242;28;20442;-55
2022/07/19 04:26:26;;;;;;;7.90;5.13;;;;;;;;;;4993307;28;20402;-55
2022/07/19 04:28:53;;;;;;;5.50;4.82;;;;;;;;;;4993128;28;20402;-55
2022/07/19 04:31:19;;;;;;;5.80;5.00;;;;;;;;;;4993180;28;20824;-55
2022/07/19 04:33:45;;;;;;;6.35;5.07;;;;;;;;;;4992960;28;20905;-55
2022/07/19 04:36:11;;;;;;;6.20;4.80;;;;;;;;;;4992940;28;20816;-55
2022/07/19 04:38:37;;;;;;;5.35;4.82;;;;;;;;;;4992965;28;20489;-55
2022/07/19 04:41:03;;;;;;;6.13;5.00;;;;;;;;;;4991653;28;20489;-56
2022/07/19 04:43:29;;;;;;;5.30;4.75;;;;;;;;;;4992803;28;20422;-55
2022/07/19 04:45:59;;;;;;;7.28;4.80;;;;;;;;;;4992504;28;20405;-55
2022/07/19 04:48:25;;;;;;;6.18;5.15;;;;;;;;;;4992669;28;20491;-56
2022/07/19 04:50:51;;;;;;;6.25;4.88;;;;;;;;;;4992591;28;20414;-55
2022/07/19 04:53:17;;;;;;;7.50;5.10;;;;;;;;;;4992705;28;20498;-55
2022/07/19 04:55:43;;;;;;;6.45;5.30;;;;;;;;;;4992616;28;20402;-55
2022/07/19 04:58:09;;;;;;;6.22;5.35;;;;;;;;;;4992403;28;20442;-55
2022/07/19 05:00:35;;;;;;;6.80;5.32;;;;;;;;;;4992375;28;20414;-55
2022/07/19 05:03:04;;;;;;;9.13;4.93;;;;;;;;;;4992359;28;20430;-55
2022/07/19 05:05:30;;;;;;;6.90;5.25;;;;;;;;;;4992542;28;20421;-55
2022/07/19 05:07:56;;;;;;;7.03;5.35;;;;;;;;;;4992266;28;20406;-55
2022/07/19 05:10:23;;;;;;;8.38;5.78;;;;;;;;;;4992495;28;20696;-55
2022/07/19 05:12:49;;;;;;;7.18;5.70;;;;;;;;;;4992371;28;20482;-55
2022/07/19 05:15:15;;;;;;;7.70;5.60;;;;;;;;;;4992138;28;20505;-55
2022/07/19 05:17:42;;;;;;;8.27;5.40;;;;;;;;;;4992129;28;20414;-55
2022/07/19 05:20:10;;;;;;;7.97;5.95;;;;;;;;;;4992149;28;20409;-55
2022/07/19 05:22:36;;;;;;;7.05;5.13;;;;;;;;;;4990443;28;20418;-55
2022/07/19 05:25:03;;;;;;;6.78;5.32;;;;;;;;;;4992077;28;20797;-55
2022/07/19 05:27:29;;;;;;;7.03;5.07;;;;;;;;;;4992283;28;20438;-55
2022/07/19 05:29:55;;;;;;;8.55;5.07;;;;;;;;;;4991905;28;20410;-55
2022/07/19 05:32:21;;;;;;;8.38;5.53;;;;;;;;;;4991763;28;20506;-55
2022/07/19 05:34:47;;;;;;;6.68;5.20;;;;;;;;;;4991233;28;20952;-55
2022/07/19 05:37:14;;;;;;;7.78;5.20;;;;;;;;;;4991625;28;20410;-55
2022/07/19 05:39:40;;;;;;;6.25;5.40;;;;;;;;;;4991673;28;20418;-55
2022/07/19 05:42:06;;;;;;;9.00;5.28;;;;;;;;;;4991424;28;20464;-55
2022/07/19 05:44:32;;;;;;;8.15;5.30;;;;;;;;;;4991716;28;20450;-56
2022/07/19 05:46:58;;;;;;;6.90;5.17;;;;;;;;;;4991698;28;20418;-55
2022/07/19 05:49:24;;;;;;;5.63;5.03;;;;;;;;;;4991767;28;20444;-55
2022/07/19 05:51:50;;;;;;;7.93;5.47;;;;;;;;;;4991657;28;20413;-56
2022/07/19 05:54:17;;;;;;;6.20;5.10;;;;;;;;;;4991632;28;20788;-55
2022/07/19 05:56:43;;;;;;;8.20;5.22;;;;;;;;;;4991607;28;20477;-55
2022/07/19 05:59:09;;;;;;;8.07;5.25;;;;;;;;;;4991367;28;20880;-56
2022/07/19 06:01:35;;;;;;;7.57;5.15;;;;;;;;;;4991413;28;20444;-56
2022/07/19 06:04:01;;;;;;;11.18;5.20;;;;;;;;;;4991335;28;20423;-56
2022/07/19 06:06:28;;;;;;;8.10;5.10;;;;;;;;;;4991405;28;20500;-56
2022/07/19 06:08:54;;;;;;;8.50;5.20;;;;;;;;;;4991245;28;20410;-55
2022/07/19 06:11:22;;;;;;;7.23;4.70;;;;;;;;;;4991413;28;20407;-56
2022/07/19 06:13:49;;;;;;;9.10;5.20;;;;;;;;;;4991502;28;20406;-55
2022/07/19 06:16:15;;;;;;;6.45;4.97;;;;;;;;;;4991274;28;20411;-56
2022/07/19 06:18:41;;;;;;;6.78;4.88;;;;;;;;;;4991281;28;20407;-56
2022/07/19 06:21:08;;;;;;;5.70;4.43;;;;;;;;;;4991233;28;20421;-56
2022/07/19 06:23:34;;;;;;;7.18;4.70;;;;;;;;;;4991214;28;20429;-55
2022/07/19 06:26:00;;;;;;;6.57;4.45;;;;;;;;;;4991246;28;20406;-55
2022/07/19 06:28:27;;;;;;;7.22;4.65;;;;;;;;;;4991299;28;20426;-55
2022/07/19 06:30:54;;;;;;;6.60;4.40;;;;;;;;;;4990956;28;20406;-54
2022/07/19 06:33:20;;;;;;;5.93;4.32;;;;;;;;;;4990881;28;20916;-55
2022/07/19 06:35:47;;;;;;;8.05;4.93;;;;;;;;;;4990798;28;20804;-55
2022/07/19 06:38:13;;;;;;;5.97;4.27;;;;;;;;;;4990957;28;20406;-55
2022/07/19 06:40:39;;;;;;;7.25;4.60;;;;;;;;;;4990799;28;20882;-55
2022/07/19 06:43:05;;;;;;;8.02;5.00;;;;;;;;;;4991462;28;20496;-55
2022/07/19 06:45:32;;;;;;;7.45;4.53;;;;;;;;;;4994331;28;20888;-55
2022/07/19 06:47:58;;;;;;;7.88;4.78;;;;;;;;;;4993901;28;20421;-55
2022/07/19 06:50:25;;;;;;;8.55;4.57;;;;;;;;;;4994570;28;20445;-55
2022/07/19 06:52:51;;;;;;;4.13;3.77;;;;;;;;;;4995521;28;20653;-55
2022/07/19 06:55:17;;;;;;;6.03;4.37;;;;;;;;;;4995446;28;20334;-55
2022/07/19 06:57:43;;;;;;;5.90;4.17;;;;;;;;;;4995820;28;20204;-55
2022/07/19 07:00:09;;;;;;;4.83;3.60;;;;;;;;;;4995773;28;20235;-55
2022/07/19 07:02:37;;;;;;;8.03;4.17;;;;;;;;;;4995606;28;20251;-55
2022/07/19 07:05:03;;;;;;;8.70;4.00;;;;;;;;;;4995466;28;20584;-55
2022/07/19 07:07:29;;;;;;;8.63;4.40;;;;;;;;;;4995669;28;20291;-55
2022/07/19 07:09:55;;;;;;;10.20;4.77;;;;;;;;;;4995602;28;20242;-55
2022/07/19 07:12:21;;;;;;;6.03;3.87;;;;;;;;;;4995676;28;20199;-55
2022/07/19 07:14:47;;;;;;;6.67;4.33;;;;;;;;;;4995279;28;20230;-55
2022/07/19 07:17:13;;;;;;;6.70;4.07;;;;;;;;;;4995380;28;20204;-55
2022/07/19 07:19:40;;;;;;;6.77;4.50;;;;;;;;;;4995433;28;20308;-55
2022/07/19 07:22:06;;;;;;;7.20;4.03;;;;;;;;;;4995280;28;20205;-55
2022/07/19 07:24:32;;;;;;;8.57;3.97;;;;;;;;;;4995415;28;20690;-55
2022/07/19 07:26:58;;;;;;;5.80;3.50;;;;;;;;;;4995338;28;20253;-55
2022/07/19 07:29:24;;;;;;;6.90;3.80;;;;;;;;;;4995210;28;20589;-55
2022/07/19 07:31:50;;;;;;;5.63;4.07;;;;;;;;;;4995112;28;20209;-55
2022/07/19 07:34:16;;;;;;;4.10;3.70;;;;;;;;;;4994927;28;20229;-55
2022/07/19 07:36:44;;;;;;;4.20;3.70;;;;;;;;;;4995063;28;20206;-55
2022/07/19 07:39:10;;;;;;;6.70;3.90;;;;;;;;;;4994962;28;20209;-55
2022/07/19 07:41:36;;;;;;;4.80;3.60;;;;;;;;;;4994761;28;20201;-55
2022/07/19 07:44:02;;;;;;;5.03;3.50;;;;;;;;;;4994686;28;20222;-55
2022/07/19 07:46:28;;;;;;;4.83;3.13;;;;;;;;;;4994770;28;20204;-54
2022/07/19 07:48:54;;;;;;;4.53;3.00;;;;;;;;;;4994780;28;20260;-56
2022/07/19 07:51:20;;;;;;;5.30;3.20;;;;;;;;;;4994946;28;20204;-55
2022/07/19 07:53:47;;;;;;;4.57;2.90;;;;;;;;;;4994745;28;20557;-55
2022/07/19 07:56:13;;;;;;;5.20;3.30;;;;;;;;;;4994767;28;20255;-56
2022/07/19 07:58:39;;;;;;;6.87;3.57;;;;;;;;;;4994770;28;20655;-56
2022/07/19 08:01:05;;;;;;;6.77;3.10;;;;;;;;;;4994408;28;20208;-56
2022/07/19 08:03:31;;;;;;;6.13;2.97;;;;;;;;;;4994719;28;20295;-56
2022/07/19 08:05:57;;;;;;;3.10;2.80;;;;;;;;;;4994676;28;20618;-56
2022/07/19 08:08:26;;;;;;;5.77;3.03;;;;;;;;;;4994535;28;20225;-56
2022/07/19 08:10:54;;;;;;;5.60;3.00;;;;;;;;;;4994501;28;20211;-56
2022/07/19 08:13:20;;;;;;;4.73;2.67;;;;;;;;;;4994582;28;20202;-56
2022/07/19 08:15:46;;;;;;;3.90;3.00;;;;;;;;;;4994542;28;20207;-55
2022/07/19 08:18:12;;;;;;;3.70;3.10;;;;;;;;;;4994304;28;20724;-56
2022/07/19 08:20:38;;;;;;;4.97;2.93;;;;;;;;;;4994033;28;20227;-56
2022/07/19 08:23:04;;;;;;;3.77;3.07;;;;;;;;;;4994263;28;20214;-56
2022/07/19 08:25:32;;;;;;;3.53;3.10;;;;;;;;;;4994415;28;20218;-56
2022/07/19 08:27:59;;;;;;;3.63;3.00;;;;;;;;;;4994070;28;20762;-56
2022/07/19 08:30:25;;;;;;;4.63;2.90;;;;;;;;;;4994125;28;20210;-57
2022/07/19 08:32:51;;;;;;;5.87;3.10;;;;;;;;;;4994002;28;20564;-55
2022/07/19 08:35:17;;;;;;;4.53;3.00;;;;;;;;;;4993755;28;20233;-55
2022/07/19 08:37:43;;;;;;;3.43;2.90;;;;;;;;;;4993711;28;20225;-56
2022/07/19 08:40:09;;;;;;;5.73;2.97;;;;;;;;;;4991857;28;20214;-56
2022/07/19 08:42:36;;;;;;;3.73;3.00;;;;;;;;;;4993842;28;20685;-55
2022/07/19 08:45:05;;;;;;;3.07;2.77;;;;;;;;;;4993799;28;20208;-54
2022/07/19 08:47:31;;;;;;;5.13;2.80;;;;;;;;;;4993937;28;20198;-53
2022/07/19 08:49:58;;;;;;;3.70;2.70;;;;;;;;;;4993550;28;20198;-54
2022/07/19 08:52:24;;;;;;;4.07;2.60;;;;;;;;;;4993802;28;20242;-57
2022/07/19 08:54:50;;;;;;;5.17;3.07;;;;;;;;;;4993412;28;20213;-54
2022/07/19 09:00:01;;;;;;;4.73;2.83;;;;;;;;;;4992897;28;20203;-57
2022/07/19 09:02:28;;;;;;;2.73;2.13;;;;;;;;;;4993397;28;20225;-58
2022/07/19 09:05:01;;;;;;;3.80;2.50;;;;;;;;;;4993251;28;20211;-58
2022/07/19 09:07:27;;;;;;;5.20;2.27;;;;;;;;;;4993012;28;20202;-58
2022/07/19 09:10:13;;;;;;;7.63;2.40;;;;;;;;;;4993459;28;20284;-58
2022/07/19 09:12:54;;;;;;;4.13;2.20;;;;;;;;;;4993394;28;20652;-58
2022/07/19 09:15:21;;;;;;;4.83;2.27;;;;;;;;;;4993089;28;20210;-58
2022/07/19 09:17:47;;;;;;;3.73;2.20;;;;;;;;;;4992973;28;20610;-58
2022/07/19 09:20:25;;;;;;;2.10;1.90;;;;;;;;;;4992948;28;20200;-59
2022/07/19 09:22:54;;;;;;;5.07;2.10;;;;;;;;;;4993112;28;20279;-59
2022/07/19 09:25:32;;;;;;;2.20;2.00;;;;;;;;;;4993158;28;20201;-59
2022/07/19 09:27:58;;;;;;;2.30;2.00;;;;;;;;;;4993140;28;20660;-58
2022/07/19 09:30:34;;;;;;;2.70;2.03;;;;;;;;;;4992879;28;20257;-58
2022/07/19 09:33:05;;;;;;;3.30;2.17;;;;;;;;;;4992984;28;20233;-59
2022/07/19 09:35:34;;;;;;;5.00;2.03;;;;;;;;;;4992902;28;20244;-59
2022/07/19 09:38:13;;;;;;;5.03;2.10;;;;;;;;;;4992929;28;20263;-59
2022/07/19 09:40:39;;;;;;;2.37;1.80;;;;;;;;;;4992894;28;20201;-58
2022/07/19 09:43:05;;;;;;;6.70;2.00;;;;;;;;;;4992447;28;20699;-58
2022/07/19 09:45:33;;;;;;;2.83;1.80;;;;;;;;;;4992740;28;20203;-58
2022/07/19 09:48:00;;;;;;;2.07;1.67;;;;;;;;;;4992498;28;20680;-58
2022/07/19 09:50:26;;;;;;;2.00;1.77;;;;;;;;;;4993022;28;20205;-58
2022/07/19 09:52:52;;;;;;;3.13;1.97;;;;;;;;;;4992762;28;20226;-59
2022/07/19 09:55:19;;;;;;;2.80;1.70;;;;;;;;;;4992712;28;20202;-59
2022/07/19 09:57:47;;;;;;;3.43;2.00;;;;;;;;;;4992629;28;20221;-58
2022/07/19 10:00:14;;;;;;;2.87;1.70;;;;;;;;;;4992384;28;20248;-58
2022/07/19 10:02:42;;;;;;;3.07;1.80;;;;;;;;;;4992615;28;20264;-59
2022/07/19 10:05:10;;;;;;;2.93;1.97;;;;;;;;;;4992539;28;20206;-58
2022/07/19 10:07:36;;;;;;;3.90;2.10;;;;;;;;;;4992213;28;20225;-59
2022/07/19 10:10:03;;;;;;;6.77;2.10;;;;;;;;;;4992153;28;20329;-59
2022/07/19 10:12:29;;;;;;;1.93;1.63;;;;;;;;;;4992358;28;20621;-59
2022/07/19 10:14:55;;;;;;;1.70;1.60;;;;;;;;;;4992197;28;20308;-59
2022/07/19 10:17:23;;;;;;;2.03;1.70;;;;;;;;;;4992134;28;20751;-58
2022/07/19 10:19:51;;;;;;;3.87;2.00;;;;;;;;;;4995774;28;20652;-59
2022/07/19 10:22:18;;;;;;;2.57;1.67;;;;;;;;;;4996432;28;20635;-58
2022/07/19 10:24:51;;;;;;;3.43;1.90;;;;;;;;;;4996343;28;20208;-59
2022/07/19 10:27:18;;;;;;;3.87;1.80;;;;;;;;;;4996515;28;20569;-59
2022/07/19 10:29:44;;;;;;;4.17;1.80;;;;;;;;;;4996391;28;20294;-59
2022/07/19 10:32:11;;;;;;;2.73;1.80;;;;;;;;;;4995760;28;20350;-59
2022/07/19 10:34:37;;;;;;;2.50;1.83;;;;;;;;;;4995989;28;20831;-59
2022/07/19 10:37:05;;;;;;;5.37;1.80;;;;;;;;;;4996195;28;20659;-59
2022/07/19 10:39:33;;;;;;;3.87;1.80;;;;;;;;;;4996324;28;20209;-59
2022/07/19 10:42:19;;;;;;;2.97;1.93;;;;;;;;;;4996173;28;20202;-58
2022/07/19 10:45:03;;;;;;;2.50;1.80;;;;;;;;;;4996075;28;20207;-58
2022/07/19 10:47:45;;;;;;;2.07;1.83;;;;;;;;;;4995939;28;20194;-58
2022/07/19 10:50:14;;;;;;;3.07;1.77;;;;;;;;;;4995504;28;20600;-59
2022/07/19 10:52:42;;;;;;;3.07;1.90;;;;;;;;;;4995829;28;20200;-59
2022/07/19 10:55:29;;;;;;;4.13;2.10;;;;;;;;;;4995896;28;20596;-59
2022/07/19 10:58:08;;;;;;;2.90;2.20;;;;;;;;;;4995872;28;20203;-58
2022/07/19 11:00:41;;;;;;;3.03;1.90;;;;;;;;;;4995878;28;20210;-59
2022/07/19 11:03:28;;;;;;;3.03;1.90;;;;;;;;;;4995538;28;20243;-58
2022/07/19 11:05:55;;;;;;;4.73;2.30;;;;;;;;;;4985549;28;20734;-58
2022/07/19 11:08:32;;;;;;;2.57;1.93;;;;;;;;;;4995739;28;20240;-58
2022/07/19 11:11:02;;;;;;;6.37;2.03;;;;;;;;;;4995176;28;20739;-59
2022/07/19 11:13:29;;;;;;;3.10;2.20;;;;;;;;;;4995532;28;20224;-59
2022/07/19 11:15:55;;;;;;;4.00;2.10;;;;;;;;;;4995355;28;20240;-59
2022/07/19 11:18:21;;;;;;;4.17;2.03;;;;;;;;;;4995529;28;20213;-59
2022/07/19 11:20:47;;;;;;;2.63;2.00;;;;;;;;;;4995571;28;20301;-59
2022/07/19 11:23:17;;;;;;;4.03;1.77;;;;;;;;;;4995381;28;20699;-59
2022/07/19 11:25:46;;;;;;;2.53;1.87;;;;;;;;;;4995282;28;20681;-59
2022/07/19 11:28:20;;;;;;;2.93;2.00;;;;;;;;;;4995145;28;20208;-59
2022/07/19 11:30:46;;;;;;;2.40;1.90;;;;;;;;;;4994960;28;20227;-59
2022/07/19 11:33:15;;;;;;;5.73;2.07;;;;;;;;;;4995022;28;20577;-59
2022/07/19 11:35:52;;;;;;;5.00;2.30;;;;;;;;;;4995028;28;20245;-59
2022/07/19 11:38:18;;;;;;;12.50;2.22;;;;;;;;;;4995226;28;20485;-62
2022/07/19 11:40:45;;;;;;;2.10;1.75;;;;;;;;;;4995528;28;20206;-59
2022/07/19 11:43:11;;;;;;;2.25;1.90;;;;;;;;;;4994745;28;20197;-60
2022/07/19 11:45:42;;;;;;;4.28;2.13;;;;;;;;;;4995064;28;20702;-59
2022/07/19 11:48:08;;;;;;;3.55;2.13;;;;;;;;;;4994922;28;20201;-58
2022/07/19 11:50:34;;;;;;;8.35;2.35;;;;;;;;;;4994820;28;20613;-58
2022/07/19 11:53:00;;;;;;;4.90;1.70;;;;;;;;;;4994866;28;20225;-57
2022/07/19 11:55:26;;;;;;;5.25;1.90;;;;;;;;;;4994907;28;20593;-58
2022/07/19 11:57:54;;;;;;;2.63;1.65;;;;;;;;;;4994863;28;20201;-58
2022/07/19 12:00:20;;;;;;;2.50;1.95;;;;;;;;;;4994648;28;20554;-58
2022/07/19 12:02:50;;;;;;;5.05;1.80;;;;;;;;;;4994831;28;20691;-56
2022/07/19 12:05:16;;;;;;;3.63;1.80;;;;;;;;;;4994597;28;20206;-57
2022/07/19 12:07:45;;;;;;;4.32;1.98;;;;;;;;;;4994741;28;20224;-56
2022/07/19 12:10:11;;;;;;;3.35;1.88;;;;;;;;;;4994557;28;20300;-57
2022/07/19 12:12:41;;;;;;;2.95;1.50;;;;;;;;;;4994578;28;20227;-58
2022/07/19 12:15:09;;;;;;;2.75;1.70;;;;;;;;;;4994425;28;20198;-58
2022/07/19 12:17:35;;;;;;;5.55;2.10;;;;;;;;;;4994500;28;20210;-59
2022/07/19 12:20:07;;;;;;;5.05;1.92;;;;;;;;;;4989031;28;20210;-60
2022/07/19 12:22:34;;;;;;;2.72;1.85;;;;;;;;;;5004636;28;20209;-60
2022/07/19 12:25:00;;;;;;;2.17;1.95;;;;;;;;;;5013853;28;20201;-60
2022/07/19 12:27:27;;;;;;;3.05;1.70;;;;;;;;;;5013801;28;20652;-61
2022/07/19 12:29:54;;;;;;;3.83;1.90;;;;;;;;;;5013367;28;20201;-60
2022/07/19 12:32:29;;;;;;;4.47;2.13;;;;;;;;;;5011898;28;20283;-62
2022/07/19 12:34:57;;;;;;;2.72;2.22;;;;;;;;;;5013285;28;20578;-60
2022/07/19 12:37:24;;;;;;;4.93;2.33;;;;;;;;;;5013421;28;20205;-60
2022/07/19 12:39:57;;;;;;;3.75;2.20;;;;;;;;;;5013665;28;20228;-60
2022/07/19 12:42:23;;;;;;;2.50;1.73;;;;;;;;;;5012944;28;20239;-60
2022/07/19 12:44:49;;;;;;;3.25;2.30;;;;;;;;;;5013516;28;20232;-60
2022/07/19 12:47:15;;;;;;;5.10;2.22;;;;;;;;;;5013122;28;20702;-60
2022/07/19 12:49:47;;;;;;;4.53;2.40;;;;;;;;;;5013428;28;20235;-60
2022/07/19 12:52:13;;;;;;;4.10;2.20;;;;;;;;;;5011455;28;20208;-60
2022/07/19 12:54:40;;;;;;;4.43;2.08;;;;;;;;;;5013125;28;20320;-60
2022/07/19 12:57:06;;;;;;;4.43;2.28;;;;;;;;;;5013076;28;20200;-60
2022/07/19 12:59:38;;;;;;;4.50;2.30;;;;;;;;;;5013146;28;20208;-60
2022/07/19 13:02:04;;;;;;;3.43;2.30;;;;;;;;;;5012901;28;20203;-60
2022/07/19 13:04:30;;;;;;;3.73;2.30;;;;;;;;;;5013162;28;20622;-60
2022/07/19 13:06:58;;;;;;;5.53;2.77;;;;;;;;;;5012880;28;20200;-60
2022/07/19 13:09:23;;;;;;;3.80;3.10;;;;;;;;;;5013013;28;20202;-60
2022/07/19 13:11:49;;;;;;;5.20;2.53;;;;;;;;;;5012862;28;20254;-60
2022/07/19 13:14:15;;;;;;;4.40;2.60;;;;;;;;;;5012720;28;20760;-60
2022/07/19 13:16:41;;;;;;;3.70;2.58;;;;;;;;;;5012898;28;20212;-60
2022/07/19 13:19:07;;;;;;;5.57;2.90;;;;;;;;;;5012605;28;20204;-60
2022/07/19 13:21:34;;;;;;;8.70;3.10;;;;;;;;;;5012811;28;20207;-60
2022/07/19 13:24:01;;;;;;;5.43;2.60;;;;;;;;;;5012692;28;20205;-60
2022/07/19 13:26:27;;;;;;;7.38;2.60;;;;;;;;;;5012777;28;20247;-60
2022/07/19 13:28:53;;;;;;;4.90;2.85;;;;;;;;;;5012568;28;20205;-60
2022/07/19 13:31:19;;;;;;;2.58;2.20;;;;;;;;;;5012410;28;20205;-61
2022/07/19 13:33:45;;;;;;;4.07;2.35;;;;;;;;;;5012324;28;20229;-60
2022/07/19 13:36:11;;;;;;;3.40;2.25;;;;;;;;;;5012447;28;20216;-60
2022/07/19 13:38:40;;;;;;;4.40;2.72;;;;;;;;;;5012512;28;20194;-60
2022/07/19 13:41:08;;;;;;;4.78;2.60;;;;;;;;;;5012221;28;20232;-60
2022/07/19 13:43:34;;;;;;;2.65;2.15;;;;;;;;;;5012351;28;20197;-60
2022/07/19 13:46:00;;;;;;;5.95;2.13;;;;;;;;;;5012473;28;20244;-60
2022/07/19 13:48:26;;;;;;;4.55;2.30;;;;;;;;;;5012077;28;20659;-60
2022/07/19 13:50:52;;;;;;;4.10;2.03;;;;;;;;;;5012257;28;20213;-60
2022/07/19 13:53:18;;;;;;;8.38;2.38;;;;;;;;;;5011912;28;20275;-61
2022/07/19 13:55:44;;;;;;;3.65;1.83;;;;;;;;;;5012353;28;20698;-60
2022/07/19 13:58:12;;;;;;;3.50;2.20;;;;;;;;;;5012043;28;20801;-60
2022/07/19 14:00:38;;;;;;;5.68;2.35;;;;;;;;;;5012158;28;20518;-60
2022/07/19 14:03:04;;;;;;;2.67;1.95;;;;;;;;;;5012067;28;20197;-60
2022/07/19 14:05:30;;;;;;;2.90;2.00;;;;;;;;;;5012167;28;20223;-60
2022/07/19 14:07:56;;;;;;;2.35;1.98;;;;;;;;;;5011948;28;20201;-60
2022/07/19 14:10:22;;;;;;;4.32;1.90;;;;;;;;;;5012065;28;20256;-60
2022/07/19 14:12:48;;;;;;;3.03;2.10;;;;;;;;;;5012201;28;20292;-60
2022/07/19 14:15:16;;;;;;;3.60;2.17;;;;;;;;;;5011920;28;20726;-60
2022/07/19 14:17:42;;;;;;;3.45;2.20;;;;;;;;;;5011455;28;20248;-60
2022/07/19 14:20:08;;;;;;;3.13;1.85;;;;;;;;;;5012117;28;20679;-60
2022/07/19 14:22:34;;;;;;;3.63;2.03;;;;;;;;;;5012286;28;20232;-60
2022/07/19 14:25:00;;;;;;;3.25;1.80;;;;;;;;;;5012394;28;20263;-60
2022/07/19 14:27:26;;;;;;;3.15;2.22;;;;;;;;;;5011918;28;20696;-60
2022/07/19 14:29:52;;;;;;;5.47;1.95;;;;;;;;;;5012025;28;20205;-60
2022/07/19 14:32:19;;;;;;;2.35;2.00;;;;;;;;;;5011591;28;20224;-61
2022/07/19 14:34:45;;;;;;;4.32;2.08;;;;;;;;;;5011952;28;20290;-63
2022/07/19 14:37:11;;;;;;;4.10;1.80;;;;;;;;;;5011927;28;20201;-55
2022/07/19 14:39:38;;;;;;;8.18;1.90;;;;;;;;;;5012016;28;20207;-55
2022/07/19 14:42:05;;;;;;;2.38;2.08;;;;;;;;;;5011864;28;20666;-55
2022/07/19 14:44:31;;;;;;;2.63;2.10;;;;;;;;;;5012206;28;20270;-54
2022/07/19 14:46:57;;;;;;;5.85;2.03;;;;;;;;;;5012043;28;20668;-55
2022/07/19 14:49:24;;;;;;;5.30;1.80;;;;;;;;;;5012003;28;20204;-62
2022/07/19 14:51:50;;;;;;;2.50;1.90;;;;;;;;;;5011991;28;20598;-62
2022/07/19 14:54:16;;;;;;;4.68;2.20;;;;;;;;;;5011725;28;20328;-62